Southlake's Hourly Summary for Wednesday, July 11, 2018
Hour Temp
(f)
RH
(%)
Solar Rad.
(MJ/m2)
Rainfall
(in)
Wind
(mph)
7/11/2018 12:00 AM 76 94 0 0 1.12
7/11/2018 1:00 AM 75 94 0 0 1.29
7/11/2018 2:00 AM 74 95 0 0 1.12
7/11/2018 3:00 AM 74 95 0 0 0.95
7/11/2018 4:00 AM 74 94 0 0 1.17
7/11/2018 5:00 AM 76 91 0 0 1.68
7/11/2018 6:00 AM 76 92 0.01 0 1.62
7/11/2018 7:00 AM 76 88 0.13 0 1.9
7/11/2018 8:00 AM 79 83 0.54 0 2.96
7/11/2018 9:00 AM 81 77 0.81 0 2.91
7/11/2018 10:00 AM 87 63 2.25 0 3.69
7/11/2018 11:00 AM 88 56 1.48 0 4.03
7/11/2018 12:00 PM 91 51 2.56 0 4.08
7/11/2018 1:00 PM 93 46 3.1 0 5.25
7/11/2018 2:00 PM 95 38 3.47 0 4.7
7/11/2018 3:00 PM 96 37 2.35 0 5.93
7/11/2018 4:00 PM 95 40 2.11 0 6.32
7/11/2018 5:00 PM 96 38 1.92 0 6.32
7/11/2018 6:00 PM 95 39 1.4 0 6.93
7/11/2018 7:00 PM 94 39 0.59 0 5.2
7/11/2018 8:00 PM 92 42 0.12 0 3.64
7/11/2018 9:00 PM 90 47 0 0 3.19
7/11/2018 10:00 PM 88 52 0 0 3.58
7/11/2018 11:00 PM 85 61 0 0 3.19
Data Summary 85 64 22.84 0.00 3.45